VIR2MG KMCO-EGCC
Flight info
| Callsign | VIR2MG |
|---|---|
| Flight time | N/A |
| Altitude | 35000 |
| Route | FATHE4 VIYAP Q87 JROSS DCT ELLDE Q97 PAACK/N0484F370 Q97 KALDA DCT ZJAAY Q167 RIFLE DCT ACK DCT KANNI N171E PORTI/M084F390 NATT GISTI/N0485F390 DCT BOFUM Q37 MALUD |
| Aircraft | A35K/H-SDE2E3GHIJ3J4J5LM1ORWXY/LB1D1 |
Departure
| Time | 2026-05-05 00:25 |
|---|---|
| Airport | Orlando International Airport (KMCO) |
Arrival
| Time | N/A |
|---|---|
| Airport | Manchester Airport (EGCC) |
| Time | Latitude | Longitude | Altitude | Speed | Heading |
|---|---|---|---|---|---|
| 2026-05-04 23:39 | 28.42613 | -81.31422 | 108 ft | 0 kts | 323° |
| 2026-05-05 00:09 | 28.42613 | -81.31421 | 107 ft | 0 kts | 323° |
| 2026-05-05 00:10 | 28.42609 | -81.31418 | 107 ft | 3 kts | 325° |
| 2026-05-05 00:10 | 28.42586 | -81.31408 | 105 ft | 4 kts | 4° |
| 2026-05-05 00:10 | 28.42561 | -81.31409 | 106 ft | 2 kts | 349° |
| 2026-05-05 00:10 | 28.42541 | -81.31401 | 106 ft | 4 kts | 296° |
| 2026-05-05 00:11 | 28.42539 | -81.31374 | 103 ft | 4 kts | 257° |
| 2026-05-05 00:11 | 28.42543 | -81.31358 | 104 ft | 0 kts | 257° |
| 2026-05-05 00:16 | 28.42542 | -81.31358 | 104 ft | 0 kts | 257° |
| 2026-05-05 00:17 | 28.42541 | -81.31360 | 104 ft | 0 kts | 248° |
| 2026-05-05 00:17 | 28.42538 | -81.31364 | 104 ft | 3 kts | 236° |
| 2026-05-05 00:17 | 28.42515 | -81.31370 | 105 ft | 3 kts | 172° |
| 2026-05-05 00:17 | 28.42485 | -81.31347 | 105 ft | 8 kts | 139° |
| 2026-05-05 00:18 | 28.42434 | -81.31297 | 105 ft | 12 kts | 146° |
| 2026-05-05 00:18 | 28.42366 | -81.31266 | 106 ft | 9 kts | 127° |
| 2026-05-05 00:18 | 28.42344 | -81.31191 | 106 ft | 11 kts | 103° |
| 2026-05-05 00:18 | 28.42323 | -81.31054 | 106 ft | 24 kts | 97° |
| 2026-05-05 00:19 | 28.42326 | -81.30831 | 105 ft | 29 kts | 84° |
| 2026-05-05 00:19 | 28.42342 | -81.30618 | 110 ft | 27 kts | 86° |
| 2026-05-05 00:19 | 28.42356 | -81.30402 | 107 ft | 29 kts | 85° |
| 2026-05-05 00:19 | 28.42360 | -81.30175 | 106 ft | 28 kts | 90° |
| 2026-05-05 00:20 | 28.42363 | -81.29954 | 109 ft | 28 kts | 89° |
| 2026-05-05 00:20 | 28.42331 | -81.29800 | 107 ft | 14 kts | 157° |
| 2026-05-05 00:20 | 28.42225 | -81.29790 | 107 ft | 17 kts | 180° |
| 2026-05-05 00:20 | 28.42081 | -81.29791 | 107 ft | 22 kts | 180° |
| 2026-05-05 00:21 | 28.41917 | -81.29788 | 106 ft | 24 kts | 178° |
| 2026-05-05 00:21 | 28.41749 | -81.29787 | 107 ft | 25 kts | 181° |
| 2026-05-05 00:21 | 28.41575 | -81.29784 | 107 ft | 26 kts | 178° |
| 2026-05-05 00:21 | 28.41390 | -81.29783 | 106 ft | 27 kts | 180° |
| 2026-05-05 00:22 | 28.41213 | -81.29782 | 106 ft | 20 kts | 179° |
| 2026-05-05 00:22 | 28.41070 | -81.29780 | 106 ft | 21 kts | 179° |
| 2026-05-05 00:22 | 28.40947 | -81.29778 | 105 ft | 7 kts | 178° |
| 2026-05-05 00:22 | 28.40887 | -81.29776 | 106 ft | 10 kts | 179° |
| 2026-05-05 00:23 | 28.40831 | -81.29742 | 103 ft | 10 kts | 112° |
| 2026-05-05 00:23 | 28.40823 | -81.29688 | 104 ft | 0 kts | 90° |
| 2026-05-05 00:24 | 28.40823 | -81.29685 | 104 ft | 2 kts | 90° |
| 2026-05-05 00:24 | 28.40823 | -81.29656 | 104 ft | 7 kts | 90° |
| 2026-05-05 00:24 | 28.40835 | -81.29589 | 104 ft | 10 kts | 56° |
| 2026-05-05 00:24 | 28.40905 | -81.29561 | 106 ft | 16 kts | 6° |
| 2026-05-05 00:25 | 28.41139 | -81.29562 | 105 ft | 60 kts | 360° |
| 2026-05-05 00:25 | 28.41781 | -81.29570 | 109 ft | 123 kts | 359° |
| 2026-05-05 00:25 | 28.42822 | -81.29601 | 214 ft | 165 kts | 356° |
| 2026-05-05 00:25 | 28.43905 | -81.29676 | 1007 ft | 150 kts | 356° |
| 2026-05-05 00:26 | 28.44998 | -81.29662 | 1380 ft | 165 kts | 8° |
| 2026-05-05 00:26 | 28.46136 | -81.29204 | 1625 ft | 184 kts | 30° |
| 2026-05-05 00:26 | 28.47292 | -81.28405 | 1940 ft | 205 kts | 33° |
| 2026-05-05 00:26 | 28.48551 | -81.27511 | 2422 ft | 219 kts | 32° |
| 2026-05-05 00:27 | 28.49894 | -81.26589 | 2898 ft | 235 kts | 31° |
| 2026-05-05 00:27 | 28.51410 | -81.25683 | 3332 ft | 255 kts | 21° |
| 2026-05-05 00:27 | 28.53044 | -81.25319 | 3979 ft | 262 kts | 6° |
| 2026-05-05 00:27 | 28.54882 | -81.25200 | 4664 ft | 268 kts | 358° |
| 2026-05-05 00:28 | 28.56760 | -81.25251 | 5362 ft | 272 kts | 354° |
| 2026-05-05 00:28 | 28.58665 | -81.25401 | 6090 ft | 277 kts | 350° |
| 2026-05-05 00:28 | 28.60598 | -81.25689 | 6820 ft | 282 kts | 348° |
| 2026-05-05 00:28 | 28.62547 | -81.26006 | 7643 ft | 284 kts | 348° |
| 2026-05-05 00:29 | 28.64508 | -81.26303 | 8534 ft | 284 kts | 349° |
| 2026-05-05 00:29 | 28.66479 | -81.26567 | 9406 ft | 286 kts | 350° |
| 2026-05-05 00:29 | 28.68468 | -81.26826 | 10216 ft | 290 kts | 350° |
| 2026-05-05 00:29 | 28.70530 | -81.27103 | 10625 ft | 308 kts | 349° |
| 2026-05-05 00:30 | 28.72720 | -81.27419 | 10956 ft | 326 kts | 347° |
| 2026-05-05 00:30 | 28.75030 | -81.27799 | 11272 ft | 344 kts | 347° |
| 2026-05-05 00:30 | 28.77461 | -81.28185 | 11564 ft | 361 kts | 348° |
| 2026-05-05 00:30 | 28.80005 | -81.28560 | 11913 ft | 375 kts | 348° |
| 2026-05-05 00:31 | 28.82625 | -81.28922 | 12430 ft | 383 kts | 349° |
| 2026-05-05 00:31 | 28.85289 | -81.29277 | 13022 ft | 388 kts | 350° |
| 2026-05-05 00:31 | 28.87987 | -81.29523 | 13625 ft | 392 kts | 353° |
| 2026-05-05 00:31 | 28.90689 | -81.29721 | 14180 ft | 396 kts | 353° |
| 2026-05-05 00:32 | 28.93475 | -81.29933 | 14719 ft | 400 kts | 352° |
| 2026-05-05 00:32 | 28.96259 | -81.30156 | 15253 ft | 403 kts | 352° |
| 2026-05-05 00:32 | 28.99070 | -81.30389 | 15808 ft | 406 kts | 352° |
| 2026-05-05 00:32 | 29.01895 | -81.30666 | 16351 ft | 409 kts | 350° |
| 2026-05-05 00:33 | 29.04740 | -81.30989 | 16914 ft | 412 kts | 349° |
| 2026-05-05 00:33 | 29.07612 | -81.31280 | 17482 ft | 416 kts | 352° |
| 2026-05-05 00:33 | 29.10510 | -81.31522 | 18076 ft | 420 kts | 352° |
| 2026-05-05 00:33 | 29.13438 | -81.31735 | 18641 ft | 424 kts | 354° |
| 2026-05-05 00:34 | 29.15396 | -81.31820 | 19014 ft | 426 kts | 354° |
| 2026-05-05 00:34 | 29.18365 | -81.31945 | 19596 ft | 428 kts | 353° |
| 2026-05-05 00:34 | 29.21343 | -81.32089 | 20188 ft | 429 kts | 353° |
| 2026-05-05 00:34 | 29.24336 | -81.32250 | 20773 ft | 432 kts | 353° |
| 2026-05-05 00:35 | 29.27346 | -81.32420 | 21366 ft | 434 kts | 352° |
| 2026-05-05 00:35 | 29.31331 | -81.32653 | 22134 ft | 437 kts | 352° |
| 2026-05-05 00:35 | 29.33388 | -81.32775 | 22550 ft | 439 kts | 352° |
| 2026-05-05 00:35 | 29.36450 | -81.32958 | 23164 ft | 442 kts | 352° |
| 2026-05-05 00:36 | 29.39530 | -81.33143 | 23753 ft | 445 kts | 352° |
| 2026-05-05 00:36 | 29.42629 | -81.33329 | 24238 ft | 448 kts | 351° |
| 2026-05-05 00:36 | 29.45754 | -81.33518 | 24747 ft | 451 kts | 351° |
| 2026-05-05 00:36 | 29.48902 | -81.33708 | 25239 ft | 455 kts | 351° |
| 2026-05-05 00:37 | 29.52075 | -81.33900 | 25748 ft | 458 kts | 351° |
| 2026-05-05 00:37 | 29.55267 | -81.34093 | 26275 ft | 461 kts | 351° |
| 2026-05-05 00:37 | 29.58481 | -81.34288 | 26745 ft | 465 kts | 350° |
| 2026-05-05 00:37 | 29.61723 | -81.34484 | 27241 ft | 468 kts | 350° |
| 2026-05-05 00:38 | 29.64978 | -81.34683 | 27741 ft | 470 kts | 350° |
| 2026-05-05 00:38 | 29.68257 | -81.34876 | 28230 ft | 474 kts | 350° |
| 2026-05-05 00:38 | 29.71560 | -81.35062 | 28695 ft | 477 kts | 350° |
| 2026-05-05 00:38 | 29.74884 | -81.35249 | 29147 ft | 480 kts | 350° |
| 2026-05-05 00:39 | 29.78229 | -81.35439 | 29578 ft | 483 kts | 349° |
| 2026-05-05 00:39 | 29.81591 | -81.35631 | 30001 ft | 486 kts | 349° |
| 2026-05-05 00:39 | 29.84973 | -81.35823 | 30470 ft | 486 kts | 349° |
| 2026-05-05 00:39 | 29.88344 | -81.36013 | 31068 ft | 482 kts | 349° |
| 2026-05-05 00:40 | 29.91681 | -81.36201 | 31684 ft | 478 kts | 349° |
| 2026-05-05 00:40 | 29.94995 | -81.36390 | 32250 ft | 475 kts | 349° |
| 2026-05-05 00:40 | 29.98279 | -81.36579 | 32768 ft | 473 kts | 349° |
| 2026-05-05 00:40 | 30.01554 | -81.36768 | 33279 ft | 470 kts | 349° |
| 2026-05-05 00:41 | 30.04816 | -81.36956 | 33775 ft | 468 kts | 349° |
| 2026-05-05 00:41 | 30.08058 | -81.37143 | 34239 ft | 466 kts | 349° |
| 2026-05-05 00:41 | 30.11290 | -81.37330 | 34547 ft | 466 kts | 349° |
| 2026-05-05 00:41 | 30.14537 | -81.37520 | 34799 ft | 469 kts | 348° |
| 2026-05-05 00:42 | 30.17804 | -81.37712 | 35007 ft | 471 kts | 348° |
| 2026-05-05 00:42 | 30.24381 | -81.38094 | 35089 ft | 475 kts | 349° |
| 2026-05-05 00:43 | 30.30987 | -81.38475 | 35082 ft | 476 kts | 349° |
| 2026-05-05 00:43 | 30.37227 | -81.38836 | 35082 ft | 476 kts | 349° |